Time;durP1;ratioP1;P1;durP2;ratioP2;P2;SDS_P1;SDS_P2;PMS_P1;PMS_P2;Temp;Humidity;BMP_temperature;BMP_pressure;BME280_temperature;BME280_humidity;BME280_pressure;Samples;Min_cycle;Max_cycle;Signal;HPM_P1;HPM_P2
2022/12/07 00:01:11;;;;;;;5.55;4.22;;;6.40;88.80;;;;;;5073944;28;20070;-32
2022/12/07 00:03:38;;;;;;;6.70;4.45;;;6.30;88.80;;;;;;5074075;28;20024;-28
2022/12/07 00:06:05;;;;;;;6.20;4.28;;;6.30;89.00;;;;;;5073848;28;20367;-28
2022/12/07 00:08:32;;;;;;;10.27;4.70;;;6.20;89.10;;;;;;5073826;28;20086;-39
2022/12/07 00:11:05;;;;;;;6.15;4.10;;;6.10;89.10;;;;;;5074123;28;20020;-32
2022/12/07 00:13:32;;;;;;;7.43;4.63;;;6.10;89.20;;;;;;5073804;28;20028;-28
2022/12/07 00:16:03;;;;;;;6.93;4.80;;;6.10;89.20;;;;;;5073468;28;20076;-28
2022/12/07 00:18:29;;;;;;;5.85;4.43;;;6.00;89.30;;;;;;5073689;28;20035;-27
2022/12/07 00:21:01;;;;;;;7.18;4.82;;;6.00;89.30;;;;;;5073916;28;20020;-28
2022/12/07 00:23:26;;;;;;;5.95;4.35;;;5.90;89.30;;;;;;5073150;28;20045;-29
2022/12/07 00:25:52;;;;;;;5.18;4.03;;;5.90;89.40;;;;;;5072759;28;20467;-29
2022/12/07 00:28:17;;;;;;;6.22;4.00;;;5.80;89.30;;;;;;5073513;28;20021;-28
2022/12/07 00:30:43;;;;;;;6.63;3.75;;;5.80;89.40;;;;;;5073432;28;20384;-31
2022/12/07 00:33:08;;;;;;;5.18;3.80;;;5.80;89.40;;;;;;5073402;28;20146;-30
2022/12/07 00:35:34;;;;;;;6.40;3.97;;;5.80;89.40;;;;;;5073353;28;20028;-28
2022/12/07 00:37:59;;;;;;;6.85;3.72;;;5.70;89.40;;;;;;5073277;28;20475;-29
2022/12/07 00:40:25;;;;;;;7.20;4.05;;;5.70;89.40;;;;;;5073441;28;20051;-31
2022/12/07 00:42:50;;;;;;;8.25;3.50;;;5.70;89.50;;;;;;5073128;28;20024;-29
2022/12/07 00:45:16;;;;;;;7.10;3.60;;;5.70;89.60;;;;;;5072941;28;20025;-31
2022/12/07 00:47:41;;;;;;;5.38;3.72;;;5.70;89.50;;;;;;5073065;28;20036;-30
2022/12/07 00:50:07;;;;;;;5.13;3.67;;;5.70;89.60;;;;;;5073041;28;20020;-31
2022/12/07 00:52:33;;;;;;;4.13;3.20;;;5.70;89.60;;;;;;5072958;28;20127;-30
2022/12/07 00:54:58;;;;;;;4.88;3.10;;;5.70;89.60;;;;;;5054802;28;20078;-28
2022/12/07 00:57:24;;;;;;;5.30;3.47;;;5.70;89.50;;;;;;5073155;28;20032;-31
2022/12/07 00:59:49;;;;;;;5.18;3.38;;;5.70;89.40;;;;;;5073077;28;20017;-31
2022/12/07 01:02:15;;;;;;;5.00;3.28;;;5.70;89.40;;;;;;5072894;28;20025;-34
2022/12/07 01:04:41;;;;;;;8.68;3.92;;;5.70;89.40;;;;;;5072624;28;20092;-29
2022/12/07 01:07:06;;;;;;;7.57;3.63;;;5.70;89.50;;;;;;5072652;28;20102;-34
2022/12/07 01:09:32;;;;;;;8.13;3.92;;;5.70;89.40;;;;;;5072634;28;20495;-34
2022/12/07 01:11:57;;;;;;;6.40;4.30;;;5.60;89.40;;;;;;5072745;28;20025;-36
2022/12/07 01:14:23;;;;;;;6.07;3.50;;;5.60;89.40;;;;;;5072826;28;20484;-33
2022/12/07 01:16:49;;;;;;;6.55;4.93;;;5.60;89.50;;;;;;5072260;28;20068;-32
2022/12/07 01:19:14;;;;;;;7.32;3.75;;;5.50;89.50;;;;;;5072393;28;20082;-30
2022/12/07 01:21:40;;;;;;;7.18;4.20;;;5.50;89.50;;;;;;5072631;28;20024;-30
2022/12/07 01:24:08;;;;;;;4.70;3.65;;;5.50;89.60;;;;;;5072564;28;20028;-28
2022/12/07 01:26:34;;;;;;;9.82;4.50;;;5.50;89.60;;;;;;5072416;28;20024;-28
2022/12/07 01:29:00;;;;;;;6.60;4.03;;;5.50;89.60;;;;;;5072412;28;20020;-28
2022/12/07 01:31:27;;;;;;;6.75;3.97;;;5.50;89.70;;;;;;5072018;28;20016;-28
2022/12/07 01:33:57;;;;;;;6.43;4.10;;;5.50;89.70;;;;;;5072339;28;20051;-31
2022/12/07 01:36:28;;;;;;;8.20;4.40;;;5.50;89.60;;;;;;5071749;28;20056;-28
2022/12/07 01:39:07;;;;;;;4.30;3.63;;;5.50;89.60;;;;;;5071857;28;20383;-29
2022/12/07 01:41:39;;;;;;;8.23;4.88;;;5.50;89.50;;;;;;5072181;28;20431;-28
2022/12/07 01:44:29;;;;;;;7.95;3.67;;;5.50;89.50;;;;;;5072128;28;20024;-28
2022/12/07 01:47:04;;;;;;;5.53;4.10;;;5.50;89.50;;;;;;5072066;28;20025;-29
2022/12/07 01:49:45;;;;;;;6.20;4.15;;;5.50;89.50;;;;;;5071792;28;20013;-30
2022/12/07 01:52:21;;;;;;;5.28;3.80;;;5.50;89.40;;;;;;5072017;28;20472;-29
2022/12/07 01:54:52;;;;;;;5.55;4.20;;;5.50;89.40;;;;;;5071772;28;20488;-30
2022/12/07 01:57:19;;;;;;;7.93;3.90;;;5.40;89.50;;;;;;5071695;28;20013;-31
2022/12/07 01:59:47;;;;;;;7.13;4.10;;;5.40;89.50;;;;;;5071719;28;20027;-30
2022/12/07 02:02:19;;;;;;;8.15;3.70;;;5.40;89.60;;;;;;5071638;28;20027;-33
2022/12/07 02:04:45;;;;;;;6.65;3.97;;;5.40;89.60;;;;;;5071590;28;20052;-28
2022/12/07 02:07:11;;;;;;;8.18;4.10;;;5.30;89.60;;;;;;5071552;28;20028;-34
2022/12/07 02:09:37;;;;;;;6.60;3.80;;;5.30;90.00;;;;;;5071588;28;20044;-28
2022/12/07 02:12:03;;;;;;;6.75;3.85;;;5.30;89.60;;;;;;5071467;28;20028;-31
2022/12/07 02:14:29;;;;;;;7.03;4.32;;;5.30;89.80;;;;;;5071444;28;20024;-28
2022/12/07 02:17:22;;;;;;;9.07;3.97;;;5.30;89.70;;;;;;5071184;28;20411;-30
2022/12/07 02:20:17;;;;;;;5.05;3.95;;;5.30;89.70;;;;;;5071457;28;20039;-28
2022/12/07 02:22:51;;;;;;;9.45;4.22;;;5.30;89.70;;;;;;5071354;28;20036;-28
2022/12/07 02:25:54;;;;;;;6.20;3.90;;;5.20;89.60;;;;;;5071300;28;20177;-29
2022/12/07 02:29:04;;;;;;;6.15;3.78;;;5.20;89.60;;;;;;5071288;28;20369;-28
2022/12/07 02:31:31;;;;;;;8.18;4.13;;;5.20;89.60;;;;;;5026539;28;20040;-32
2022/12/07 02:34:25;;;;;;;7.75;4.32;;;5.20;89.70;;;;;;5071374;28;20032;-35
2022/12/07 02:36:56;;;;;;;;;;;5.10;89.60;;;;;;5072025;28;20143;-38
2022/12/07 02:39:40;;;;;;;7.93;4.10;;;5.10;89.60;;;;;;5071276;28;19912;-33
2022/12/07 02:42:13;;;;;;;6.90;4.55;;;5.00;89.60;;;;;;5071126;28;20394;-29
2022/12/07 02:44:40;;;;;;;7.47;3.55;;;5.10;89.70;;;;;;5071148;28;20039;-28
2022/12/07 02:47:10;;;;;;;5.93;3.58;;;5.10;89.60;;;;;;5071426;28;20028;-29
2022/12/07 02:49:38;;;;;;;5.55;3.35;;;5.00;89.60;;;;;;5075329;28;20046;-27
2022/12/07 02:52:03;;;;;;;6.82;3.60;;;5.00;89.60;;;;;;5075244;28;20501;-28
2022/12/07 02:54:29;;;;;;;7.05;3.67;;;5.00;89.70;;;;;;5075053;28;20046;-28
2022/12/07 02:57:13;;;;;;;6.03;3.65;;;5.10;89.70;;;;;;5057037;28;20480;-28
2022/12/07 02:59:41;;;;;;;;;;;5.10;89.60;;;;;;5075580;28;20032;-28
2022/12/07 03:02:29;;;;;;;7.85;3.20;;;5.00;89.60;;;;;;5075017;28;19915;-31
2022/12/07 03:05:21;;;;;;;7.28;3.65;;;5.00;89.60;;;;;;5056986;28;20032;-32
2022/12/07 03:08:25;;;;;;;6.47;3.38;;;5.00;89.50;;;;;;5075123;28;20063;-29
2022/12/07 03:10:57;;;;;;;4.68;3.17;;;5.10;89.40;;;;;;5075290;28;20075;-30
2022/12/07 03:13:41;;;;;;;4.35;2.83;;;5.10;89.40;;;;;;5075215;28;20059;-30
2022/12/07 03:16:17;;;;;;;5.00;3.20;;;5.20;89.30;;;;;;5074562;28;20052;-35
2022/12/07 03:19:06;;;;;;;8.13;2.90;;;5.20;89.10;;;;;;5075093;28;20483;-33
2022/12/07 03:21:42;;;;;;;7.22;3.55;;;5.20;89.00;;;;;;5074599;28;20425;-28
2022/12/07 03:24:15;;;;;;;6.35;3.40;;;5.20;89.00;;;;;;5074912;28;20064;-29
2022/12/07 03:26:46;;;;;;;7.68;3.58;;;5.30;89.00;;;;;;5074859;28;20097;-28
2022/12/07 03:29:20;;;;;;;5.90;2.90;;;5.30;88.90;;;;;;5074975;28;20029;-29
2022/12/07 03:31:52;;;;;;;9.25;3.22;;;5.20;88.90;;;;;;5074654;28;20388;-28
2022/12/07 03:34:27;;;;;;;7.03;2.70;;;5.30;88.90;;;;;;5074486;28;20448;-29
2022/12/07 03:37:00;;;;;;;9.90;3.13;;;5.30;88.90;;;;;;5074475;28;20036;-30
2022/12/07 03:39:33;;;;;;;;;;;5.30;88.80;;;;;;5075179;28;20028;-34
2022/12/07 03:42:01;;;;;;;3.60;2.45;;;5.30;88.80;;;;;;5074229;28;20287;-35
2022/12/07 03:44:27;;;;;;;5.28;2.70;;;5.40;88.90;;;;;;5073995;28;20035;-29
2022/12/07 03:47:13;;;;;;;5.07;2.80;;;5.40;89.40;;;;;;5074313;28;20385;-31
2022/12/07 03:49:53;;;;;;;4.97;2.60;;;5.50;88.80;;;;;;5074184;28;20060;-31
2022/12/07 03:52:24;;;;;;;5.05;2.60;;;5.50;88.70;;;;;;5074064;28;20016;-32
2022/12/07 03:55:06;;;;;;;5.47;2.45;;;5.50;88.50;;;;;;5074071;28;20526;-32
2022/12/07 03:57:33;;;;;;;9.27;3.05;;;5.50;88.50;;;;;;5074295;28;20025;-30
2022/12/07 04:00:00;;;;;;;3.80;2.30;;;5.50;88.50;;;;;;5074182;28;20025;-29
2022/12/07 04:02:28;;;;;;;6.45;2.63;;;5.50;88.50;;;;;;5074169;28;20028;-35
2022/12/07 04:04:55;;;;;;;4.60;2.33;;;5.50;88.50;;;;;;5074232;28;20531;-34
2022/12/07 04:07:20;;;;;;;3.10;2.08;;;5.50;88.40;;;;;;5073994;28;20056;-31
2022/12/07 04:09:46;;;;;;;4.45;2.10;;;5.40;88.40;;;;;;5056048;28;20142;-34
2022/12/07 04:12:11;;;;;;;7.55;2.10;;;5.40;88.40;;;;;;5055913;28;20013;-31
2022/12/07 04:14:37;;;;;;;3.35;1.88;;;5.40;88.30;;;;;;5074014;28;20034;-30
2022/12/07 04:17:02;;;;;;;3.85;1.65;;;5.40;88.50;;;;;;5073880;28;20048;-29
2022/12/07 04:19:31;;;;;;;8.63;2.10;;;5.40;88.40;;;;;;5073879;28;20040;-35
2022/12/07 04:21:57;;;;;;;2.42;1.40;;;5.40;88.30;;;;;;5073823;28;20071;-32
2022/12/07 04:24:24;;;;;;;4.00;1.98;;;5.40;88.30;;;;;;5073694;28;20040;-29
2022/12/07 04:26:50;;;;;;;4.00;1.80;;;5.40;88.40;;;;;;5073959;28;20043;-34
2022/12/07 04:29:16;;;;;;;5.88;2.17;;;5.40;88.40;;;;;;5073899;28;20025;-31
2022/12/07 04:31:42;;;;;;;5.57;2.08;;;5.40;88.40;;;;;;5055510;28;20048;-29
2022/12/07 04:34:08;;;;;;;3.10;1.90;;;5.40;88.40;;;;;;5073668;28;20064;-32
2022/12/07 04:36:33;;;;;;;2.60;1.63;;;5.50;88.40;;;;;;5073519;28;20517;-32
2022/12/07 04:39:00;;;;;;;3.92;1.75;;;5.50;88.30;;;;;;5055112;28;20024;-30
2022/12/07 04:41:28;;;;;;;4.90;1.80;;;5.50;88.20;;;;;;5073088;28;20041;-33
2022/12/07 04:44:02;;;;;;;4.95;1.70;;;5.60;88.20;;;;;;5072848;28;20039;-31
2022/12/07 04:46:28;;;;;;;;;;;5.60;88.10;;;;;;5073541;28;20017;-30
2022/12/07 04:48:54;;;;;;;3.55;1.70;;;5.60;88.10;;;;;;5073187;28;19931;-29
2022/12/07 04:51:23;;;;;;;4.65;1.80;;;5.60;88.10;;;;;;5072776;28;20024;-35
2022/12/07 04:53:49;;;;;;;6.40;2.05;;;5.60;88.00;;;;;;5072573;28;20129;-32
2022/12/07 04:56:16;;;;;;;7.53;1.80;;;5.60;88.00;;;;;;5072834;28;20064;-30
2022/12/07 04:58:43;;;;;;;4.15;1.90;;;5.60;88.00;;;;;;5072971;28;20043;-33
2022/12/07 05:01:08;;;;;;;6.38;2.10;;;5.60;88.00;;;;;;5072582;28;20081;-29
2022/12/07 05:03:35;;;;;;;4.22;1.80;;;5.50;88.00;;;;;;5072663;28;20036;-33
2022/12/07 05:06:01;;;;;;;5.20;1.80;;;5.50;88.10;;;;;;5072614;28;20035;-30
2022/12/07 05:08:26;;;;;;;3.90;1.83;;;5.50;88.20;;;;;;5072328;28;20676;-29
2022/12/07 05:10:52;;;;;;;2.95;1.60;;;5.40;88.20;;;;;;5072457;28;20086;-31
2022/12/07 05:13:17;;;;;;;3.58;1.60;;;5.30;88.30;;;;;;5072358;28;20435;-29
2022/12/07 05:15:43;;;;;;;3.17;1.50;;;5.30;88.40;;;;;;5072120;28;20036;-29
2022/12/07 05:18:12;;;;;;;3.65;1.63;;;5.30;88.50;;;;;;5072212;28;20021;-31
2022/12/07 05:20:38;;;;;;;2.45;1.40;;;5.30;88.50;;;;;;5072332;28;20077;-28
2022/12/07 05:23:04;;;;;;;6.43;2.17;;;5.30;88.60;;;;;;5072287;28;20032;-31
2022/12/07 05:25:29;;;;;;;5.30;1.98;;;5.20;88.60;;;;;;5072300;28;20029;-31
2022/12/07 05:27:56;;;;;;;2.30;1.40;;;5.20;88.60;;;;;;5072202;28;20365;-34
2022/12/07 05:30:23;;;;;;;3.05;1.48;;;5.20;88.60;;;;;;5072128;28;20035;-32
2022/12/07 05:32:48;;;;;;;5.18;1.60;;;5.20;89.20;;;;;;5072236;28;20024;-34
2022/12/07 05:35:14;;;;;;;3.80;1.65;;;5.20;88.60;;;;;;5072291;28;20370;-29
2022/12/07 05:37:39;;;;;;;3.58;1.60;;;5.30;88.60;;;;;;5072284;28;20380;-30
2022/12/07 05:40:05;;;;;;;4.05;1.40;;;5.30;88.50;;;;;;5072264;28;20546;-31
2022/12/07 05:42:31;;;;;;;6.90;1.80;;;5.30;88.40;;;;;;5071993;28;20577;-33
2022/12/07 05:44:57;;;;;;;4.72;1.65;;;5.30;88.30;;;;;;5071903;28;20025;-31
2022/12/07 05:47:22;;;;;;;3.38;1.25;;;5.30;88.20;;;;;;5071773;28;20037;-28
2022/12/07 05:49:48;;;;;;;5.57;1.50;;;5.30;88.20;;;;;;5071937;28;20028;-30
2022/12/07 05:52:14;;;;;;;2.75;1.40;;;5.30;88.20;;;;;;5071774;28;20027;-31
2022/12/07 05:54:39;;;;;;;4.25;1.23;;;5.30;88.20;;;;;;5071723;28;20029;-32
2022/12/07 05:57:05;;;;;;;4.32;1.60;;;5.30;88.30;;;;;;5071636;28;20082;-30
2022/12/07 05:59:30;;;;;;;3.10;1.30;;;5.30;88.40;;;;;;5071639;28;20067;-29
2022/12/07 06:01:58;;;;;;;4.35;1.63;;;5.20;88.30;;;;;;5071402;28;20333;-32
2022/12/07 06:04:25;;;;;;;3.70;1.60;;;5.20;88.40;;;;;;5071241;28;20020;-31
2022/12/07 06:06:51;;;;;;;5.53;1.50;;;5.10;88.40;;;;;;5071654;28;20017;-31
2022/12/07 06:09:18;;;;;;;7.13;1.45;;;5.20;88.60;;;;;;5071368;28;20162;-30
2022/12/07 06:14:28;;;;;;;4.72;1.38;;;5.10;88.60;;;;;;5071175;28;20032;-36
2022/12/07 06:16:54;;;;;;;2.90;1.15;;;5.00;88.60;;;;;;5071315;28;20041;-28
2022/12/07 06:19:19;;;;;;;3.15;1.58;;;5.00;88.70;;;;;;5071310;28;20013;-32
2022/12/07 06:21:45;;;;;;;4.25;1.73;;;5.00;88.80;;;;;;5070416;28;20103;-33
2022/12/07 06:24:16;;;;;;;4.57;1.80;;;5.00;88.80;;;;;;5070950;28;20380;-32
2022/12/07 06:26:42;;;;;;;3.80;1.63;;;5.00;88.80;;;;;;5071250;28;20495;-34
2022/12/07 06:29:08;;;;;;;5.13;1.77;;;4.90;88.80;;;;;;5071200;28;20417;-31
2022/12/07 06:31:34;;;;;;;7.07;1.70;;;4.90;88.80;;;;;;5053069;28;20480;-33
2022/12/07 06:34:01;;;;;;;4.15;1.63;;;4.90;88.80;;;;;;5071112;28;20514;-32
2022/12/07 06:36:27;;;;;;;4.63;1.40;;;4.90;88.90;;;;;;5071109;28;20472;-33
2022/12/07 06:38:54;;;;;;;3.30;1.70;;;4.90;89.00;;;;;;5071130;28;20094;-29
2022/12/07 06:41:20;;;;;;;6.80;2.17;;;4.80;88.90;;;;;;5071172;28;20056;-30
2022/12/07 06:43:45;;;;;;;5.85;2.85;;;4.80;88.80;;;;;;5071366;28;20052;-29
2022/12/07 06:46:11;;;;;;;10.98;3.30;;;4.80;88.80;;;;;;5053291;28;20027;-31
2022/12/07 06:48:36;;;;;;;5.85;3.08;;;4.80;88.80;;;;;;5071379;28;20016;-33
2022/12/07 06:51:02;;;;;;;5.72;2.70;;;4.80;88.80;;;;;;5071350;28;20431;-29
2022/12/07 06:53:27;;;;;;;4.45;2.30;;;4.80;88.80;;;;;;5071244;28;20031;-29
2022/12/07 06:55:53;;;;;;;4.50;1.90;;;4.80;88.80;;;;;;5071309;28;20024;-36
2022/12/07 06:58:19;;;;;;;5.45;1.90;;;4.80;88.80;;;;;;5071347;28;20354;-35
2022/12/07 07:00:45;;;;;;;2.92;1.80;;;4.80;88.70;;;;;;5071351;28;20170;-33
2022/12/07 07:03:11;;;;;;;6.53;1.80;;;4.80;88.60;;;;;;5071079;28;20036;-32
2022/12/07 07:05:36;;;;;;;6.47;1.73;;;4.80;88.50;;;;;;5071055;28;20017;-33
2022/12/07 07:08:02;;;;;;;3.58;1.70;;;4.80;88.50;;;;;;5053032;28;20025;-29
2022/12/07 07:10:28;;;;;;;7.97;2.38;;;4.80;88.40;;;;;;5071045;28;20017;-29
2022/12/07 07:12:53;;;;;;;5.60;1.98;;;4.70;88.50;;;;;;5071308;28;20457;-29
2022/12/07 07:15:19;;;;;;;6.57;2.08;;;4.70;88.50;;;;;;5071182;28;20499;-31
2022/12/07 07:17:44;;;;;;;7.30;2.28;;;4.80;88.50;;;;;;5071161;28;20025;-29
2022/12/07 07:20:11;;;;;;;3.90;1.73;;;4.70;88.50;;;;;;5070950;28;20028;-31
2022/12/07 07:22:36;;;;;;;4.93;1.80;;;4.70;88.50;;;;;;5052747;28;20024;-29
2022/12/07 07:25:02;;;;;;;7.68;2.00;;;4.70;88.50;;;;;;5071056;28;20074;-29
2022/12/07 07:27:27;;;;;;;5.30;1.60;;;4.70;88.50;;;;;;5070855;28;20028;-29
2022/12/07 07:29:53;;;;;;;3.35;1.60;;;4.70;88.50;;;;;;5070987;28;20047;-29
2022/12/07 07:32:19;;;;;;;5.22;2.20;;;4.70;88.50;;;;;;5070698;28;20021;-29
2022/12/07 07:34:44;;;;;;;4.85;2.17;;;4.70;88.50;;;;;;5073523;28;20033;-30
2022/12/07 07:37:12;;;;;;;4.20;1.90;;;4.70;88.50;;;;;;5074266;28;20029;-33
2022/12/07 07:39:38;;;;;;;4.22;1.58;;;4.70;88.50;;;;;;5074462;28;20020;-31
2022/12/07 07:42:04;;;;;;;6.38;1.75;;;4.70;88.50;;;;;;5074299;28;20031;-31
2022/12/07 07:44:30;;;;;;;5.35;1.65;;;4.70;88.60;;;;;;5074184;28;20036;-31
2022/12/07 07:46:55;;;;;;;4.45;1.90;;;4.70;88.60;;;;;;5074213;28;20035;-32
2022/12/07 07:49:21;;;;;;;5.47;1.38;;;4.70;88.60;;;;;;5074151;28;20032;-32
2022/12/07 07:51:46;;;;;;;4.15;1.40;;;4.70;88.50;;;;;;5074184;28;20134;-34
2022/12/07 07:54:12;;;;;;;3.28;1.60;;;4.70;88.50;;;;;;5073939;28;20483;-32
2022/12/07 07:56:37;;;;;;;5.47;1.75;;;4.70;88.50;;;;;;5073992;28;20027;-31
2022/12/07 07:59:03;;;;;;;6.25;1.77;;;4.80;88.50;;;;;;5074150;28;20492;-31
2022/12/07 08:01:28;;;;;;;5.80;1.40;;;4.80;88.40;;;;;;5074035;28;20043;-37
2022/12/07 08:03:54;;;;;;;6.70;1.60;;;4.80;88.40;;;;;;5074109;28;20028;-32
2022/12/07 08:06:19;;;;;;;4.95;2.08;;;4.80;88.40;;;;;;5073772;28;20035;-31
2022/12/07 08:08:45;;;;;;;9.82;1.77;;;4.80;88.30;;;;;;5073986;28;20024;-29
2022/12/07 08:11:11;;;;;;;5.68;1.80;;;4.90;88.40;;;;;;5073921;28;20025;-32
2022/12/07 08:13:37;;;;;;;4.15;1.60;;;4.90;88.30;;;;;;5073792;28;20067;-33
2022/12/07 08:16:08;;;;;;;4.20;1.60;;;4.90;88.30;;;;;;5073736;28;20052;-29
2022/12/07 08:18:38;;;;;;;2.97;1.40;;;5.00;88.30;;;;;;5074137;28;20036;-32
2022/12/07 08:21:05;;;;;;;7.22;1.42;;;5.10;88.20;;;;;;5073893;28;20040;-31
2022/12/07 08:23:31;;;;;;;3.92;1.60;;;5.20;88.10;;;;;;5073559;28;20093;-36
2022/12/07 08:26:05;;;;;;;4.47;1.60;;;5.30;88.00;;;;;;5073672;28;20107;-30
2022/12/07 08:28:33;;;;;;;6.30;1.70;;;5.40;87.80;;;;;;5073503;28;20066;-31
2022/12/07 08:31:04;;;;;;;2.80;1.40;;;5.50;87.60;;;;;;5073545;28;20067;-31
2022/12/07 08:33:29;;;;;;;2.40;1.50;;;5.60;87.40;;;;;;5073490;28;20032;-30
2022/12/07 08:35:59;;;;;;;2.92;1.38;;;5.60;87.30;;;;;;5073652;28;20381;-29
2022/12/07 08:38:25;;;;;;;3.70;1.40;;;5.60;87.20;;;;;;5073326;28;20028;-30
2022/12/07 08:40:58;;;;;;;5.43;1.50;;;5.60;87.10;;;;;;5073414;28;20028;-30
2022/12/07 08:43:24;;;;;;;5.28;1.58;;;5.60;87.10;;;;;;5073220;28;20036;-32
2022/12/07 08:46:12;;;;;;;4.22;1.50;;;5.60;87.00;;;;;;5072252;28;20028;-33
2022/12/07 08:48:45;;;;;;;4.07;1.70;;;5.60;87.10;;;;;;5073310;28;20123;-30
2022/12/07 08:51:11;;;;;;;6.43;2.13;;;5.50;87.10;;;;;;5073031;28;20055;-34
2022/12/07 08:53:38;;;;;;;3.95;1.48;;;5.50;87.30;;;;;;5073189;28;20029;-29
2022/12/07 08:56:05;;;;;;;4.07;1.52;;;5.50;87.30;;;;;;5073347;28;20031;-30
2022/12/07 08:58:31;;;;;;;5.90;1.83;;;5.50;87.40;;;;;;5072947;28;20028;-29
2022/12/07 09:00:57;;;;;;;5.68;2.20;;;5.40;87.50;;;;;;5073080;28;20040;-31
2022/12/07 09:03:22;;;;;;;7.82;2.05;;;5.40;87.50;;;;;;5072926;28;20024;-31
2022/12/07 09:05:48;;;;;;;3.92;1.58;;;5.40;87.60;;;;;;5072852;28;20050;-30
2022/12/07 09:08:14;;;;;;;5.70;1.70;;;5.50;87.80;;;;;;5073038;28;20055;-30
2022/12/07 09:10:39;;;;;;;3.75;1.40;;;5.50;87.80;;;;;;5072980;28;20036;-30
2022/12/07 09:13:05;;;;;;;2.85;1.30;;;5.60;87.70;;;;;;5073337;28;20481;-31
2022/12/07 09:15:31;;;;;;;2.65;1.08;;;5.70;87.50;;;;;;5073061;28;20532;-38
2022/12/07 09:17:57;;;;;;;2.65;1.50;;;5.80;87.40;;;;;;5072599;28;20044;-31
2022/12/07 09:20:23;;;;;;;6.05;1.35;;;5.90;87.30;;;;;;5072688;28;20060;-32
2022/12/07 09:22:48;;;;;;;5.35;1.50;;;6.00;87.20;;;;;;5072643;28;20039;-31
2022/12/07 09:25:14;;;;;;;4.10;1.58;;;6.00;87.10;;;;;;5072475;28;20029;-37
2022/12/07 09:27:40;;;;;;;3.13;1.55;;;6.10;87.00;;;;;;5072531;28;20476;-28
2022/12/07 09:30:06;;;;;;;3.72;1.70;;;6.20;86.90;;;;;;5072510;28;20336;-28
2022/12/07 09:32:32;;;;;;;5.75;2.22;;;6.20;86.90;;;;;;5072326;28;20032;-28
2022/12/07 09:34:58;;;;;;;3.60;2.00;;;6.30;86.90;;;;;;5072350;28;20056;-30
2022/12/07 09:37:24;;;;;;;9.07;2.50;;;6.30;86.90;;;;;;5072414;28;20025;-30
2022/12/07 09:39:49;;;;;;;3.17;1.85;;;6.40;86.80;;;;;;5054281;28;20028;-31
2022/12/07 09:42:29;;;;;;;5.93;1.77;;;6.40;86.70;;;;;;5072304;28;20032;-29
2022/12/07 09:44:55;;;;;;;4.93;1.60;;;6.50;86.60;;;;;;5072496;28;20031;-29
2022/12/07 09:47:21;;;;;;;6.22;1.60;;;6.50;86.60;;;;;;5072192;28;20086;-31
2022/12/07 09:49:47;;;;;;;5.13;1.27;;;6.50;86.50;;;;;;5072083;28;20491;-30
2022/12/07 09:52:12;;;;;;;4.57;1.63;;;6.60;86.50;;;;;;5071966;28;20052;-29
2022/12/07 09:54:43;;;;;;;3.45;1.50;;;6.60;86.40;;;;;;5071966;28;20033;-29
2022/12/07 09:57:12;;;;;;;3.70;1.50;;;6.50;86.30;;;;;;5071713;28;20063;-38
2022/12/07 09:59:38;;;;;;;4.88;1.45;;;6.60;86.30;;;;;;5072281;28;20056;-29
2022/12/07 10:02:34;;;;;;;4.95;1.48;;;6.60;86.20;;;;;;5072181;28;20041;-29
2022/12/07 10:05:01;;;;;;;5.38;1.50;;;6.60;86.00;;;;;;5055145;28;20045;-30
2022/12/07 10:07:26;;;;;;;6.68;1.70;;;6.60;86.00;;;;;;5071816;28;20399;-29
2022/12/07 10:09:52;;;;;;;3.35;1.77;;;6.60;86.00;;;;;;5071555;28;20041;-31
2022/12/07 10:12:18;;;;;;;3.60;1.70;;;6.60;86.10;;;;;;5071762;28;20024;-33
2022/12/07 10:15:02;;;;;;;4.15;1.80;;;6.60;86.70;;;;;;5071799;28;20052;-40
2022/12/07 10:17:27;;;;;;;;;;;6.60;86.10;;;;;;5071957;28;20072;-29
2022/12/07 10:20:28;;;;;;;9.27;2.42;;;6.60;86.10;;;;;;5071920;28;19908;-28
2022/12/07 10:23:05;;;;;;;6.18;2.78;;;6.60;86.00;;;;;;5070845;28;20094;-35
2022/12/07 10:25:36;;;;;;;7.70;2.03;;;6.60;86.00;;;;;;5071440;28;20544;-34
2022/12/07 10:28:12;;;;;;;6.10;2.00;;;6.60;86.00;;;;;;5071401;28;20028;-30
2022/12/07 10:30:59;;;;;;;3.85;1.90;;;6.60;86.00;;;;;;5071753;28;20078;-33
2022/12/07 10:33:32;;;;;;;6.88;2.30;;;6.60;86.10;;;;;;5071298;28;20036;-29
2022/12/07 10:35:58;;;;;;;;;;;6.60;86.10;;;;;;5071839;28;20048;-29
2022/12/07 10:38:26;;;;;;;2.95;1.50;;;6.60;86.10;;;;;;5071323;28;19908;-30
2022/12/07 10:41:04;;;;;;;4.03;1.60;;;6.60;86.10;;;;;;5053238;28;20522;-28
2022/12/07 10:43:30;;;;;;;4.53;1.40;;;6.60;86.00;;;;;;5071223;28;20017;-32
2022/12/07 10:46:08;;;;;;;6.95;1.60;;;6.70;86.00;;;;;;5071401;28;20048;-27
2022/12/07 10:48:55;;;;;;;5.13;1.40;;;6.80;85.80;;;;;;5071177;28;20112;-27
2022/12/07 10:51:34;;;;;;;4.10;1.35;;;6.80;85.00;;;;;;5071171;28;20027;-32
2022/12/07 10:54:18;;;;;;;5.90;1.63;;;6.90;85.00;;;;;;5071064;28;20036;-30
2022/12/07 10:57:06;;;;;;;5.13;1.65;;;6.90;84.80;;;;;;5070976;28;20559;-30
2022/12/07 10:59:40;;;;;;;4.45;1.38;;;7.00;84.70;;;;;;5071001;28;20496;-28
2022/12/07 11:02:36;;;;;;;4.07;1.45;;;7.10;84.60;;;;;;5071019;28;20060;-32
2022/12/07 11:05:16;;;;;;;2.13;1.10;;;7.00;84.30;;;;;;5070867;28;20551;-29
2022/12/07 11:07:56;;;;;;;3.28;1.40;;;7.00;84.30;;;;;;5052685;28;20377;-28
2022/12/07 11:10:39;;;;;;;1.67;1.13;;;7.00;84.50;;;;;;5074877;28;20365;-32
2022/12/07 11:13:24;;;;;;;7.17;1.47;;;6.90;84.40;;;;;;5074907;28;20033;-28
2022/12/07 11:16:16;;;;;;;3.95;1.20;;;6.90;84.60;;;;;;5074627;28;20265;-32
2022/12/07 11:18:53;;;;;;;5.03;1.33;;;6.90;84.70;;;;;;5074503;28;20082;-29
2022/12/07 11:22:05;;;;;;;2.50;1.50;;;6.90;84.80;;;;;;5074718;28;20103;-34
2022/12/07 11:24:39;;;;;;;2.40;1.17;;;6.90;84.70;;;;;;5070459;28;20380;-37
2022/12/07 11:27:21;;;;;;;3.83;1.13;;;6.90;85.30;;;;;;5074507;28;20021;-35
2022/12/07 11:29:57;;;;;;;5.63;1.42;;;7.00;84.60;;;;;;5056692;28;20505;-31
2022/12/07 11:32:41;;;;;;;4.40;1.60;;;7.00;84.60;;;;;;5074379;28;20032;-31
2022/12/07 11:35:19;;;;;;;3.65;1.58;;;7.00;84.50;;;;;;5074429;28;20024;-29
2022/12/07 11:37:46;;;;;;;3.13;1.20;;;6.90;84.30;;;;;;5074508;28;20027;-30
2022/12/07 11:40:17;;;;;;;3.00;1.67;;;7.00;84.50;;;;;;5074482;28;20031;-29
2022/12/07 11:42:57;;;;;;;7.50;1.35;;;7.10;84.30;;;;;;5074301;28;20043;-33
2022/12/07 11:45:34;;;;;;;2.83;1.25;;;7.10;84.20;;;;;;5074089;28;20020;-30
2022/12/07 11:48:38;;;;;;;4.18;1.35;;;7.20;84.10;;;;;;5056121;28;20024;-31
2022/12/07 11:51:09;;;;;;;2.95;1.05;;;7.30;84.00;;;;;;5070226;28;20040;-29
2022/12/07 11:53:58;;;;;;;2.13;1.30;;;7.30;84.00;;;;;;5074034;28;20032;-36
2022/12/07 11:56:27;;;;;;;5.55;1.30;;;7.40;83.90;;;;;;5073915;28;20052;-34
2022/12/07 11:59:10;;;;;;;4.50;1.20;;;7.50;83.90;;;;;;5073866;28;20043;-30
2022/12/07 12:01:38;;;;;;;3.47;1.63;;;7.60;83.90;;;;;;5073854;28;20457;-31
2022/12/07 12:04:10;;;;;;;3.22;1.20;;;7.60;83.80;;;;;;5073740;28;20071;-39
2022/12/07 12:06:42;;;;;;;3.47;1.20;;;7.60;83.90;;;;;;5073598;28;20032;-45
2022/12/07 12:09:15;;;;;;;3.67;1.47;;;7.60;83.90;;;;;;5073987;28;20468;-33
2022/12/07 12:12:14;;;;;;;3.80;1.20;;;7.60;83.80;;;;;;5055761;28;20274;-32
2022/12/07 12:15:02;;;;;;;4.72;1.10;;;7.50;83.70;;;;;;5073503;28;20427;-35
2022/12/07 12:17:47;;;;;;;5.13;1.42;;;7.40;83.70;;;;;;5073322;28;20166;-32
2022/12/07 12:20:52;;;;;;;2.58;1.13;;;7.40;83.70;;;;;;5073587;28;20677;-29
2022/12/07 12:23:24;;;;;;;7.35;1.30;;;7.40;83.50;;;;;;5073249;28;20024;-30
2022/12/07 12:26:02;;;;;;;3.75;1.40;;;7.50;83.60;;;;;;5073154;28;20021;-30
2022/12/07 12:28:37;;;;;;;5.97;1.38;;;7.60;83.40;;;;;;5072873;28;20032;-30
2022/12/07 12:31:13;;;;;;;4.85;1.60;;;7.70;83.20;;;;;;5073219;28;20028;-35
2022/12/07 12:33:51;;;;;;;8.95;1.85;;;7.70;82.60;;;;;;5073406;28;20032;-34
2022/12/07 12:36:45;;;;;;;3.75;1.30;;;7.70;82.50;;;;;;5073512;28;20068;-29
2022/12/07 12:39:15;;;;;;;;;;;7.70;82.60;;;;;;5073924;28;20507;-31
2022/12/07 12:42:05;;;;;;;4.72;1.42;;;7.80;82.40;;;;;;5073505;28;19908;-31
2022/12/07 12:44:31;;;;;;;3.70;1.35;;;8.00;82.40;;;;;;5073116;28;20112;-29
2022/12/07 12:47:04;;;;;;;4.10;1.10;;;8.20;82.30;;;;;;5073255;28;20029;-44
2022/12/07 12:49:36;;;;;;;6.03;1.30;;;8.30;82.00;;;;;;5073388;28;20020;-43
2022/12/07 12:52:39;;;;;;;4.45;1.30;;;8.40;81.90;;;;;;5073099;28;20044;-43
2022/12/07 12:55:08;;;;;;;3.80;1.10;;;8.40;81.40;;;;;;5072966;28;20024;-43
2022/12/07 12:57:35;;;;;;;3.60;1.23;;;8.40;81.60;;;;;;5072895;28;20036;-44
2022/12/07 13:00:16;;;;;;;4.85;1.50;;;8.50;81.80;;;;;;5054659;28;20032;-44
2022/12/07 13:02:53;;;;;;;3.67;1.08;;;8.50;81.60;;;;;;5072903;28;20020;-43
2022/12/07 13:05:22;;;;;;;6.72;1.42;;;8.40;81.40;;;;;;5072648;28;20024;-41
2022/12/07 13:07:48;;;;;;;3.65;1.42;;;8.40;81.50;;;;;;5072842;28;20388;-39
2022/12/07 13:10:28;;;;;;;6.05;1.20;;;8.40;81.60;;;;;;5072864;28;20476;-41
2022/12/07 13:13:18;;;;;;;6.13;1.58;;;8.40;81.60;;;;;;5072493;28;20107;-42
2022/12/07 13:15:50;;;;;;;4.63;1.20;;;8.40;81.30;;;;;;5072732;28;20520;-33
2022/12/07 13:18:27;;;;;;;3.38;1.00;;;8.30;81.10;;;;;;5072207;28;20407;-34
2022/12/07 13:20:59;;;;;;;3.28;1.23;;;8.30;80.90;;;;;;5072260;28;20736;-33